Time;durP1;ratioP1;P1;durP2;ratioP2;P2;SDS_P1;SDS_P2;PMS_P1;PMS_P2;Temp;Humidity;BMP_temperature;BMP_pressure;BME280_temperature;BME280_humidity;BME280_pressure;Samples;Min_cycle;Max_cycle;Signal;HPM_P1;HPM_P2
2020/12/21 00:02:14;;;;;;;;;;;;;;;19.35;64.07;102478.38;4994824;28;1778;-49
2020/12/21 00:04:40;;;;;;;;;;;;;;;19.34;63.71;102476.66;5036516;28;1644;-49
2020/12/21 00:07:07;;;;;;;;;;;;;;;19.37;63.64;102483.66;5013815;28;833;-49
2020/12/21 00:09:32;;;;;;;;;;;;;;;19.27;63.36;102476.16;5002867;28;1565;-49
2020/12/21 00:11:58;;;;;;;;;;;;;;;19.27;63.41;102483.34;5008953;28;1624;-49
2020/12/21 00:14:23;;;;;;;;;;;;;;;19.24;63.25;102475.53;4997742;28;1940;-49
2020/12/21 00:16:49;;;;;;;;;;;;;;;19.23;63.07;102482.69;5014432;28;1947;-49
2020/12/21 00:19:18;;;;;;;;;;;;;;;19.19;63.29;102480.28;5003002;28;1958;-49
2020/12/21 00:21:44;;;;;;;;;;;;;;;19.14;62.88;102468.97;4997733;28;1612;-49
2020/12/21 00:24:09;;;;;;;;;;;;;;;19.15;62.96;102489.50;4998008;28;1906;-50
2020/12/21 00:26:35;;;;;;;;;;;;;;;19.10;62.94;102478.16;4997953;28;1776;-50
2020/12/21 00:29:00;;;;;;;;;;;;;;;19.05;62.55;102482.00;4997735;28;1832;-50
2020/12/21 00:31:26;;;;;;;;;;;;;;;19.05;62.65;102492.72;4997760;28;1787;-49
2020/12/21 00:33:52;;;;;;;;;;;;;;;19.04;62.53;102506.25;4997607;28;1894;-49
2020/12/21 00:36:17;;;;;;;;;;;;;;;19.05;62.69;102498.09;4998160;28;1902;-49
2020/12/21 00:38:42;;;;;;;;;;;;;;;19.02;62.40;102492.94;4997403;28;1864;-49
2020/12/21 00:41:08;;;;;;;;;;;;;;;19.04;62.38;102491.00;4996904;28;1750;-49
2020/12/21 00:43:34;;;;;;;;;;;;;;;19.01;62.01;102501.06;4997570;28;819;-49
2020/12/21 00:45:59;;;;;;;;;;;;;;;19.00;62.14;102491.28;4997130;28;1861;-49
2020/12/21 00:48:28;;;;;;;;;;;;;;;18.96;62.15;102490.63;5005390;28;1748;-49
2020/12/21 00:50:53;;;;;;;;;;;;;;;18.97;61.97;102484.28;5008379;28;1711;-49
2020/12/21 00:53:19;;;;;;;;;;;;;;;18.96;61.84;102493.31;5009035;28;1863;-49
2020/12/21 00:55:44;;;;;;;;;;;;;;;18.95;62.30;102493.38;5005952;28;1685;-49
2020/12/21 00:58:09;;;;;;;;;;;;;;;18.97;62.41;102495.00;4997561;28;1874;-49
2020/12/21 01:00:35;;;;;;;;;;;;;;;18.96;62.68;102479.91;4996511;28;1913;-50
2020/12/21 01:03:02;;;;;;;;;;;;;;;18.97;62.63;102476.25;4996643;28;1791;-49
2020/12/21 01:05:28;;;;;;;;;;;;;;;18.96;62.42;102477.22;5028657;28;1976;-48
2020/12/21 01:07:53;;;;;;;;;;;;;;;18.99;62.23;102477.00;4997513;28;1809;-49
2020/12/21 01:10:19;;;;;;;;;;;;;;;18.97;62.33;102480.75;5005203;28;1642;-49
2020/12/21 01:12:46;;;;;;;;;;;;;;;18.93;62.47;102477.38;4988276;28;1879;-49
2020/12/21 01:15:12;;;;;;;;;;;;;;;18.97;62.09;102480.75;4996784;28;861;-49
2020/12/21 01:17:37;;;;;;;;;;;;;;;18.97;62.03;102476.25;5000277;28;1897;-49
2020/12/21 01:20:04;;;;;;;;;;;;;;;18.97;61.70;102478.94;4999315;28;1761;-50
2020/12/21 01:22:30;;;;;;;;;;;;;;;19.00;61.92;102485.91;4996346;28;866;-49
2020/12/21 01:24:55;;;;;;;;;;;;;;;18.99;61.80;102493.09;4996593;28;794;-49
2020/12/21 01:27:20;;;;;;;;;;;;;;;18.94;61.88;102471.09;4997993;28;1727;-49
2020/12/21 01:29:45;;;;;;;;;;;;;;;18.92;61.85;102467.63;4996360;28;1885;-49
2020/12/21 01:32:12;;;;;;;;;;;;;;;18.92;61.51;102459.59;4996407;28;1867;-49
2020/12/21 01:34:39;;;;;;;;;;;;;;;18.89;61.47;102475.84;5027962;28;1841;-49
2020/12/21 01:37:05;;;;;;;;;;;;;;;18.86;61.72;102462.63;5027752;28;1996;-49
2020/12/21 01:39:31;;;;;;;;;;;;;;;18.84;61.31;102461.84;4996663;28;807;-49
2020/12/21 01:42:04;;;;;;;;;;;;;;;18.86;61.52;102466.19;5028202;28;1881;-49
2020/12/21 01:44:29;;;;;;;;;;;;;;;18.85;61.20;102464.44;4996197;28;1056;-49
2020/12/21 01:46:55;;;;;;;;;;;;;;;18.81;61.23;102464.75;4996617;28;1886;-49
2020/12/21 01:49:22;;;;;;;;;;;;;;;18.81;61.03;102456.69;4996467;28;1881;-49
2020/12/21 01:51:48;;;;;;;;;;;;;;;18.83;60.95;102463.69;4996079;28;823;-49
2020/12/21 01:54:15;;;;;;;;;;;;;;;18.82;60.99;102458.41;4996561;28;1645;-49
2020/12/21 01:56:41;;;;;;;;;;;;;;;18.82;61.12;102464.66;4991937;28;1941;-49
2020/12/21 01:59:08;;;;;;;;;;;;;;;18.76;61.06;102466.78;5002777;28;1835;-49
2020/12/21 02:01:36;;;;;;;;;;;;;;;18.77;61.24;102461.34;4995891;28;1482;-49
2020/12/21 02:04:02;;;;;;;;;;;;;;;18.74;60.67;102461.53;4996078;28;2046;-49
2020/12/21 02:06:28;;;;;;;;;;;;;;;18.78;60.99;102470.22;4998618;28;1601;-49
2020/12/21 02:08:54;;;;;;;;;;;;;;;18.72;60.58;102457.22;4995532;28;1895;-49
2020/12/21 02:11:19;;;;;;;;;;;;;;;18.76;60.59;102461.44;4998465;28;1747;-49
2020/12/21 02:13:46;;;;;;;;;;;;;;;18.74;60.56;102461.53;5003302;28;1714;-49
2020/12/21 02:16:15;;;;;;;;;;;;;;;18.74;60.35;102460.66;4997802;28;1881;-49
2020/12/21 02:18:41;;;;;;;;;;;;;;;18.73;60.45;102464.31;5003844;28;1737;-49
2020/12/21 02:21:07;;;;;;;;;;;;;;;18.68;60.39;102462.78;4995547;28;969;-49
2020/12/21 02:23:32;;;;;;;;;;;;;;;18.74;59.99;102474.06;5027126;28;1205;-49
2020/12/21 02:25:58;;;;;;;;;;;;;;;18.77;60.06;102476.56;4995164;28;1708;-49
2020/12/21 02:28:24;;;;;;;;;;;;;;;18.71;60.09;102461.72;5009352;28;1538;-50
2020/12/21 02:30:50;;;;;;;;;;;;;;;18.74;60.56;102458.88;5001554;28;1868;-49
2020/12/21 02:33:17;;;;;;;;;;;;;;;18.76;60.26;102458.75;4995931;28;1751;-49
2020/12/21 02:35:42;;;;;;;;;;;;;;;18.72;60.35;102449.16;4995047;28;1838;-49
2020/12/21 02:38:08;;;;;;;;;;;;;;;18.73;60.25;102440.19;5003536;28;1973;-49
2020/12/21 02:40:38;;;;;;;;;;;;;;;18.71;59.57;102439.41;4997116;28;1607;-49
2020/12/21 02:43:03;;;;;;;;;;;;;;;18.69;60.04;102439.50;4994843;28;1938;-49
2020/12/21 02:45:30;;;;;;;;;;;;;;;18.73;59.93;102456.28;4995325;28;1900;-49
2020/12/21 02:47:56;;;;;;;;;;;;;;;18.67;60.17;102450.31;4995244;28;1849;-49
2020/12/21 02:50:23;;;;;;;;;;;;;;;18.72;59.83;102454.53;4998246;28;1648;-49
2020/12/21 02:52:48;;;;;;;;;;;;;;;18.67;59.64;102453.00;4995099;28;1820;-49
2020/12/21 02:55:15;;;;;;;;;;;;;;;18.64;59.34;102445.16;4995191;28;1835;-49
2020/12/21 02:57:40;;;;;;;;;;;;;;;18.65;59.61;102444.19;5028091;28;1881;-49
2020/12/21 03:00:16;;;;;;;;;;;;;;;18.63;59.63;102454.13;5015287;28;1774;-49
2020/12/21 03:02:42;;;;;;;;;;;;;;;18.63;59.08;102448.78;4994543;28;1890;-49
2020/12/21 03:05:09;;;;;;;;;;;;;;;18.62;59.29;102440.81;4994972;28;1932;-49
2020/12/21 03:07:38;;;;;;;;;;;;;;;18.63;59.36;102445.25;4995130;28;1766;-49
2020/12/21 03:10:04;;;;;;;;;;;;;;;18.59;59.40;102441.88;5005198;28;1607;-49
2020/12/21 03:12:30;;;;;;;;;;;;;;;18.59;59.60;102447.22;5018900;28;1859;-49
2020/12/21 03:14:55;;;;;;;;;;;;;;;18.60;59.48;102442.72;4994851;28;886;-49
2020/12/21 03:17:23;;;;;;;;;;;;;;;18.59;59.64;102441.88;4994476;28;1951;-49
2020/12/21 03:19:50;;;;;;;;;;;;;;;18.58;59.02;102434.81;5003046;28;1684;-50
2020/12/21 03:22:15;;;;;;;;;;;;;;;18.60;58.95;102442.72;5010963;28;1778;-49
2020/12/21 03:24:40;;;;;;;;;;;;;;;18.48;59.57;102433.59;4994796;28;1962;-49
2020/12/21 03:27:06;;;;;;;;;;;;;;;18.27;62.33;102446.47;4994477;28;1890;-49
2020/12/21 03:29:34;;;;;;;;;;;;;;;18.12;62.34;102437.50;4997541;28;1785;-49
2020/12/21 03:32:01;;;;;;;;;;;;;;;18.05;62.72;102436.16;5010753;28;1725;-48
2020/12/21 03:34:40;;;;;;;;;;;;;;;18.02;64.07;102441.66;4998492;28;1874;-49
2020/12/21 03:37:07;;;;;;;;;;;;;;;17.97;63.73;102443.75;4975195;28;1918;-49
2020/12/21 03:39:33;;;;;;;;;;;;;;;17.97;63.50;102433.06;5002558;28;1426;-49
2020/12/21 03:41:59;;;;;;;;;;;;;;;17.95;64.93;102429.59;5008985;28;1912;-49
2020/12/21 03:44:24;;;;;;;;;;;;;;;17.94;64.56;102443.91;4993739;28;991;-49
2020/12/21 03:46:50;;;;;;;;;;;;;;;17.88;64.33;102437.94;4994846;28;1751;-49
2020/12/21 03:49:16;;;;;;;;;;;;;;;17.88;64.23;102434.41;5025816;28;1948;-49
2020/12/21 03:51:42;;;;;;;;;;;;;;;17.87;65.28;102438.91;5025628;28;1739;-49
2020/12/21 03:54:09;;;;;;;;;;;;;;;17.85;64.32;102430.13;5005283;28;1759;-49
2020/12/21 03:56:35;;;;;;;;;;;;;;;17.87;65.35;102438.91;5000757;28;1894;-49
2020/12/21 03:59:01;;;;;;;;;;;;;;;17.84;64.81;102441.75;4994177;28;1831;-49
2020/12/21 04:01:27;;;;;;;;;;;;;;;17.82;65.64;102429.38;4993833;28;1971;-49
2020/12/21 04:03:52;;;;;;;;;;;;;;;17.84;65.58;102428.38;4994001;28;1825;-49
2020/12/21 04:06:18;;;;;;;;;;;;;;;17.86;65.40;102437.19;4998683;28;1909;-49
2020/12/21 04:08:45;;;;;;;;;;;;;;;17.87;65.00;102436.25;5004110;28;1674;-49
2020/12/21 04:11:18;;;;;;;;;;;;;;;17.86;64.96;102431.81;4994149;28;2210;-49
2020/12/21 04:13:43;;;;;;;;;;;;;;;17.86;65.04;102439.84;4993949;28;1008;-49
2020/12/21 04:16:09;;;;;;;;;;;;;;;17.86;65.22;102439.00;4994439;28;1883;-48
2020/12/21 04:18:34;;;;;;;;;;;;;;;17.82;65.92;102432.91;4993641;28;2173;-49
2020/12/21 04:20:59;;;;;;;;;;;;;;;17.83;65.22;102434.69;4993960;28;1737;-49
2020/12/21 04:23:24;;;;;;;;;;;;;;;17.83;65.73;102441.84;4993846;28;860;-49
2020/12/21 04:25:49;;;;;;;;;;;;;;;17.81;65.27;102441.91;4995175;28;2067;-49
2020/12/21 04:28:15;;;;;;;;;;;;;;;17.82;66.29;102430.25;4994058;28;1685;-49
2020/12/21 04:30:40;;;;;;;;;;;;;;;17.75;65.63;102428.03;4994200;28;1786;-49
2020/12/21 04:33:06;;;;;;;;;;;;;;;17.72;66.43;102439.75;4993596;28;2111;-49
2020/12/21 04:35:31;;;;;;;;;;;;;;;17.75;66.72;102433.38;4994779;28;1922;-49
2020/12/21 04:37:56;;;;;;;;;;;;;;;17.73;67.40;102438.81;5005370;28;1969;-49
2020/12/21 04:40:21;;;;;;;;;;;;;;;17.79;67.05;102445.63;4995280;28;1673;-49
2020/12/21 04:42:47;;;;;;;;;;;;;;;17.78;66.97;102430.50;4998134;28;1736;-49
2020/12/21 04:45:13;;;;;;;;;;;;;;;17.79;66.70;102435.78;4993806;28;1722;-49
2020/12/21 04:47:41;;;;;;;;;;;;;;;17.82;66.64;102438.25;4993426;28;1896;-49
2020/12/21 04:50:10;;;;;;;;;;;;;;;17.78;66.59;102435.88;4993626;28;1875;-49
2020/12/21 04:52:44;;;;;;;;;;;;;;;17.74;65.99;102421.78;4993920;28;1793;-49
2020/12/21 04:55:09;;;;;;;;;;;;;;;17.72;66.52;102436.22;4993774;28;1574;-49
2020/12/21 04:57:35;;;;;;;;;;;;;;;17.74;66.14;102437.84;5009035;28;1886;-49
2020/12/21 05:00:00;;;;;;;;;;;;;;;17.71;65.75;102440.72;5001075;28;1707;-49
2020/12/21 05:02:25;;;;;;;;;;;;;;;17.69;66.53;102439.94;4997009;28;1728;-49
2020/12/21 05:04:51;;;;;;;;;;;;;;;17.70;66.32;102437.16;4997457;28;1839;-49
2020/12/21 05:07:16;;;;;;;;;;;;;;;17.69;66.40;102430.09;5003091;28;1730;-49
2020/12/21 05:09:42;;;;;;;;;;;;;;;17.65;67.87;102443.72;4997369;28;1905;-49
2020/12/21 05:12:07;;;;;;;;;;;;;;;17.70;69.66;102438.97;4997102;28;1669;-49
2020/12/21 05:14:36;;;;;;;;;;;;;;;17.69;69.28;102451.50;4996599;28;1689;-49
2020/12/21 05:17:15;;;;;;;;;;;;;;;17.72;70.58;102445.09;4997571;28;1894;-50
2020/12/21 05:19:40;;;;;;;;;;;;;;;17.76;68.25;102437.75;5003119;28;1705;-49
2020/12/21 05:22:12;;;;;;;;;;;;;;;17.74;68.36;102437.84;5016587;28;785;-49
2020/12/21 05:24:38;;;;;;;;;;;;;;;17.74;67.96;102442.34;4998374;28;1740;-49
2020/12/21 05:27:13;;;;;;;;;;;;;;;17.72;68.48;102438.88;4999719;28;1732;-49
2020/12/21 05:29:39;;;;;;;;;;;;;;;17.70;67.80;102445.16;4977085;28;903;-49
2020/12/21 05:32:04;;;;;;;;;;;;;;;17.68;67.61;102448.91;4977381;28;873;-49
2020/12/21 05:34:29;;;;;;;;;;;;;;;17.68;68.47;102455.09;4992618;28;1899;-49
2020/12/21 05:36:54;;;;;;;;;;;;;;;17.66;68.01;102451.66;5012602;28;1902;-49
2020/12/21 05:39:20;;;;;;;;;;;;;;;17.63;68.58;102446.47;4996697;28;774;-49
2020/12/21 05:41:45;;;;;;;;;;;;;;;17.65;68.54;102454.44;4997529;28;1584;-49
2020/12/21 05:44:10;;;;;;;;;;;;;;;17.61;68.35;102447.53;4997823;28;1551;-49
2020/12/21 05:46:36;;;;;;;;;;;;;;;17.59;67.29;102452.09;4996510;28;1852;-49
2020/12/21 05:49:01;;;;;;;;;;;;;;;17.59;67.31;102452.09;4996246;28;1853;-49
2020/12/21 05:51:28;;;;;;;;;;;;;;;17.59;67.40;102452.09;4995481;28;1787;-49
2020/12/21 05:53:58;;;;;;;;;;;;;;;17.58;68.46;102450.34;4997112;28;1697;-49
2020/12/21 05:56:24;;;;;;;;;;;;;;;17.60;68.35;102461.84;4995336;28;1902;-49
2020/12/21 05:58:49;;;;;;;;;;;;;;;17.60;67.63;102456.47;4995570;28;1631;-49
2020/12/21 06:01:15;;;;;;;;;;;;;;;17.63;68.08;102462.53;4995257;28;1713;-49
2020/12/21 06:03:44;;;;;;;;;;;;;;;17.62;68.32;102451.91;5003238;28;1685;-50
2020/12/21 06:06:14;;;;;;;;;;;;;;;17.66;68.11;102464.16;4995691;28;1829;-50
2020/12/21 06:08:40;;;;;;;;;;;;;;;17.62;67.68;102470.63;4996310;28;1631;-49
2020/12/21 06:11:19;;;;;;;;;;;;;;;17.61;67.72;102469.78;4995687;28;1925;-49
2020/12/21 06:13:55;;;;;;;;;;;;;;;17.58;67.98;102469.94;4998323;28;2385;-49
2020/12/21 06:16:20;;;;;;;;;;;;;;;17.54;68.49;102470.19;5014324;28;1699;-50
2020/12/21 06:18:58;;;;;;;;;;;;;;;17.49;68.61;102465.13;5000351;28;1911;-49
2020/12/21 06:21:24;;;;;;;;;;;;;;;17.52;67.44;102456.06;4995552;28;1822;-49
2020/12/21 06:23:49;;;;;;;;;;;;;;;17.49;68.19;102465.97;4995225;28;1968;-49
2020/12/21 06:26:14;;;;;;;;;;;;;;;17.50;67.85;102467.69;4995497;28;920;-49
2020/12/21 06:28:40;;;;;;;;;;;;;;;17.53;67.11;102460.44;4983398;28;11008;-50
2020/12/21 06:31:11;;;;;;;;;;;;;;;17.49;67.72;102460.63;5017516;28;1473;-49
2020/12/21 06:33:37;;;;;;;;;;;;;;;17.53;68.18;102452.41;5018485;28;1467;-50
2020/12/21 06:50:51;;;;;;;;;;;;;;;17.52;67.73;102469.44;4518105;27;16864637;-51
2020/12/21 06:53:22;;;;;;;;;;;;;;;17.52;67.88;102480.97;5116308;28;1602;-50
2020/12/21 06:55:47;;;;;;;;;;;;;;;17.50;68.75;102472.19;5121247;28;1519;-50
2020/12/21 06:58:12;;;;;;;;;;;;;;;17.52;68.45;102474.78;5117676;28;1913;-50
2020/12/21 07:00:37;;;;;;;;;;;;;;;17.56;69.46;102470.97;5122498;28;1851;-50
2020/12/21 07:03:03;;;;;;;;;;;;;;;17.61;69.51;102479.63;5118815;28;1555;-50
2020/12/21 07:05:28;;;;;;;;;;;;;;;17.53;71.35;102482.72;5120106;28;1506;-50
2020/12/21 07:07:57;;;;;;;;;;;;;;;17.52;71.96;102472.09;5121100;27;1496;-50
2020/12/21 07:10:22;;;;;;;;;;;;;;;17.56;70.68;102479.84;5120592;28;1650;-50
2020/12/21 07:12:50;;;;;;;;;;;;;;;17.54;72.36;102496.94;5119549;28;1451;-50
2020/12/21 07:15:17;;;;;;;;;;;;;;;17.56;72.57;102477.19;5121253;28;1716;-50
2020/12/21 07:17:42;;;;;;;;;;;;;;;17.55;71.78;102487.97;5114347;28;1587;-50
2020/12/21 07:20:08;;;;;;;;;;;;;;;17.57;72.71;102483.44;5118903;28;1968;-50
2020/12/21 07:22:42;;;;;;;;;;;;;;;17.58;72.57;102490.47;5124650;28;1579;-50
2020/12/21 07:25:14;;;;;;;;;;;;;;;17.59;71.87;102470.81;5127148;27;1820;-50
2020/12/21 07:27:40;;;;;;;;;;;;;;;17.49;72.64;102474.00;5118760;27;1716;-50
2020/12/21 07:30:09;;;;;;;;;;;;;;;17.45;71.64;102483.13;5122052;28;2005;-50
2020/12/21 07:32:34;;;;;;;;;;;;;;;17.42;72.96;102483.28;5121108;28;1809;-50
2020/12/21 07:34:59;;;;;;;;;;;;;;;17.41;71.62;102489.59;5126300;28;1785;-50
2020/12/21 07:37:25;;;;;;;;;;;;;;;17.41;72.28;102478.91;5114964;28;1798;-50
2020/12/21 07:39:50;;;;;;;;;;;;;;;17.43;71.45;102497.53;5114494;28;1909;-50
2020/12/21 07:42:17;;;;;;;;;;;;;;;17.50;71.73;102493.56;5104792;28;2143;-50
2020/12/21 07:44:49;;;;;;;;;;;;;;;17.60;71.18;102489.44;5106528;28;1796;-50
2020/12/21 07:47:27;;;;;;;;;;;;;;;17.71;71.53;102486.19;5105553;28;1610;-49
2020/12/21 07:49:59;;;;;;;;;;;;;;;17.68;71.34;102491.69;5108284;28;1412;-49
2020/12/21 07:52:26;;;;;;;;;;;;;;;17.71;71.19;102480.84;5107136;28;1206;-50
2020/12/21 07:54:53;;;;;;;;;;;;;;;17.73;71.29;102484.28;5101311;28;1444;-51
2020/12/21 07:57:18;;;;;;;;;;;;;;;17.66;71.66;102486.44;5106920;28;1405;-50
2020/12/21 07:59:58;;;;;;;;;;;;;;;17.65;71.02;102482.03;5083686;28;1997;-50
2020/12/21 08:02:24;;;;;;;;;;;;;;;17.68;70.66;102486.34;5106464;28;1714;-50
2020/12/21 08:04:57;;;;;;;;;;;;;;;17.61;71.08;102482.31;5105922;28;1552;-50
2020/12/21 08:07:29;;;;;;;;;;;;;;;17.64;71.35;102484.78;5103166;28;1560;-50
2020/12/21 08:09:55;;;;;;;;;;;;;;;17.60;70.40;102477.88;5103709;28;1584;-51
2020/12/21 08:12:21;;;;;;;;;;;;;;;17.59;71.18;102479.72;5083499;28;1686;-50
2020/12/21 08:14:47;;;;;;;;;;;;;;;17.58;70.74;102486.00;5097476;28;1562;-50
2020/12/21 08:17:18;;;;;;;;;;;;;;;17.58;70.60;102487.81;5101301;28;1591;-50
2020/12/21 08:19:47;;;;;;;;;;;;;;;17.56;70.46;102468.31;5105600;28;1893;-50
2020/12/21 08:22:13;;;;;;;;;;;;;;;17.60;71.38;102472.53;5105055;28;1493;-50
2020/12/21 08:24:41;;;;;;;;;;;;;;;17.53;70.49;102465.78;5104648;28;1640;-50
2020/12/21 08:27:06;;;;;;;;;;;;;;;17.54;71.37;102470.19;5105102;28;1532;-51
2020/12/21 08:29:32;;;;;;;;;;;;;;;17.49;70.91;102465.97;5104973;28;1420;-50
2020/12/21 08:31:58;;;;;;;;;;;;;;;17.55;71.03;102474.59;5100462;28;1508;-51
2020/12/21 08:34:23;;;;;;;;;;;;;;;17.51;70.91;102463.22;5106514;28;1341;-50
2020/12/21 08:36:50;;;;;;;;;;;;;;;17.52;71.49;102469.44;5103220;28;1280;-50
2020/12/21 08:39:19;;;;;;;;;;;;;;;17.53;70.72;102463.09;5097172;28;2101;-51
2020/12/21 08:42:04;;;;;;;;;;;;;;;17.63;70.17;102461.69;5090963;28;1689;-50
2020/12/21 08:44:31;;;;;;;;;;;;;;;17.69;69.15;102458.66;5109212;28;1544;-50
2020/12/21 08:47:02;;;;;;;;;;;;;;;17.75;69.39;102454.78;5106097;28;1572;-50
2020/12/21 08:49:34;;;;;;;;;;;;;;;17.80;69.92;102440.16;5104894;28;1516;-50
2020/12/21 08:52:00;;;;;;;;;;;;;;;17.86;69.14;102431.81;5109573;28;1941;-50
2020/12/21 08:54:25;;;;;;;;;;;;;;;17.92;68.66;102441.31;5111216;28;1853;-51
2020/12/21 08:56:52;;;;;;;;;;;;;;;17.96;69.47;102456.25;5110150;28;1668;-50
2020/12/21 08:59:17;;;;;;;;;;;;;;;17.99;68.85;102441.84;5091079;28;1930;-50
2020/12/21 09:01:43;;;;;;;;;;;;;;;18.09;67.97;102440.38;5108892;28;1642;-51
2020/12/21 09:04:10;;;;;;;;;;;;;;;18.27;67.71;102441.09;5111134;28;1789;-51
2020/12/21 09:06:37;;;;;;;;;;;;;;;18.32;67.60;102435.47;5110419;28;1807;-51
2020/12/21 09:09:05;;;;;;;;;;;;;;;18.44;67.71;102446.34;5106664;28;1646;-50
2020/12/21 09:11:30;;;;;;;;;;;;;;;18.55;66.93;102443.00;5110101;28;1677;-51
2020/12/21 09:13:56;;;;;;;;;;;;;;;18.66;66.43;102437.88;5109880;28;1552;-44
2020/12/21 09:16:25;;;;;;;;;;;;;;;18.83;66.34;102433.34;5109159;28;1555;-51
2020/12/21 09:18:50;;;;;;;;;;;;;;;18.65;66.84;102430.78;5110750;28;1893;-50
2020/12/21 09:21:17;;;;;;;;;;;;;;;18.73;67.47;102426.78;5110138;28;1568;-50
2020/12/21 09:23:43;;;;;;;;;;;;;;;18.86;66.49;102417.06;5109922;28;1846;-51
2020/12/21 09:26:09;;;;;;;;;;;;;;;18.86;67.01;102419.72;5108560;28;1572;-51
2020/12/21 09:28:34;;;;;;;;;;;;;;;18.82;67.04;102421.75;5046484;28;11423;-51
2020/12/21 09:31:05;;;;;;;;;;;;;;;18.85;67.30;102416.19;5048567;28;1631;-50
2020/12/21 09:33:30;;;;;;;;;;;;;;;18.89;67.74;102414.19;5044888;28;1533;-50
2020/12/21 09:35:55;;;;;;;;;;;;;;;18.91;67.88;102423.00;5047117;28;1664;-50
2020/12/21 09:38:31;;;;;;;;;;;;;;;19.18;66.48;102406.16;5034900;28;1915;-50
2020/12/21 09:40:56;;;;;;;;;;;;;;;19.14;66.86;102404.63;5040002;28;1588;-50
2020/12/21 09:43:21;;;;;;;;;;;;;;;19.08;67.40;102417.47;5039504;28;1638;-50
2020/12/21 09:45:47;;;;;;;;;;;;;;;19.05;67.50;102417.66;5049435;28;1742;-51
2020/12/21 09:48:13;;;;;;;;;;;;;;;19.11;67.41;102412.88;5037587;28;3127;-51
2020/12/21 09:50:38;;;;;;;;;;;;;;;18.97;67.48;102414.59;5040021;28;2651;-51
2020/12/21 09:53:11;;;;;;;;;;;;;;;18.92;67.64;102408.66;5045354;28;1638;-50
2020/12/21 09:55:39;;;;;;;;;;;;;;;18.88;67.99;102416.03;5043749;28;2487;-51
2020/12/21 09:58:05;;;;;;;;;;;;;;;18.85;67.57;102405.47;5048369;28;1989;-51
2020/12/21 10:00:30;;;;;;;;;;;;;;;18.89;67.16;102400.78;5044668;28;1637;-51
2020/12/21 10:03:03;;;;;;;;;;;;;;;19.07;66.35;102415.72;5047034;28;1544;-50
2020/12/21 10:05:28;;;;;;;;;;;;;;;19.14;66.04;102404.63;5047927;28;1639;-49
2020/12/21 10:07:53;;;;;;;;;;;;;;;19.05;65.65;102409.59;5049477;28;1515;-50
2020/12/21 10:10:20;;;;;;;;;;;;;;;19.02;66.35;102398.19;5043762;28;1498;-51
2020/12/21 10:12:57;;;;;;;;;;;;;;;19.10;65.61;102398.59;5046745;28;2126;-50
2020/12/21 10:15:23;;;;;;;;;;;;;;;19.12;64.94;102390.44;5046784;28;1750;-50
2020/12/21 10:17:48;;;;;;;;;;;;;;;19.02;64.86;102385.69;5042788;28;1805;-50
2020/12/21 10:20:13;;;;;;;;;;;;;;;19.10;64.59;102387.88;5043146;28;2846;-50
2020/12/21 10:22:38;;;;;;;;;;;;;;;18.96;64.83;102380.72;5037626;28;1987;-50
2020/12/21 10:25:04;;;;;;;;;;;;;;;18.98;65.00;102373.44;5040962;28;1730;-51
2020/12/21 10:27:30;;;;;;;;;;;;;;;18.97;64.76;102382.41;5035126;28;1830;-50
2020/12/21 10:29:55;;;;;;;;;;;;;;;19.02;64.78;102379.44;5041316;28;1481;-50
2020/12/21 10:32:21;;;;;;;;;;;;;;;19.04;65.28;102383.75;5041080;28;1834;-50
2020/12/21 10:34:47;;;;;;;;;;;;;;;18.99;65.41;102380.50;5038819;28;1671;-50
2020/12/21 10:37:12;;;;;;;;;;;;;;;18.99;65.52;102371.59;5035385;28;1866;-49
2020/12/21 10:39:39;;;;;;;;;;;;;;;18.99;65.25;102367.09;5044184;28;1921;-50
2020/12/21 10:42:06;;;;;;;;;;;;;;;19.12;65.13;102379.72;5044796;28;1613;-51
2020/12/21 10:44:32;;;;;;;;;;;;;;;19.02;65.42;102376.75;5036420;28;1696;-51
2020/12/21 10:46:58;;;;;;;;;;;;;;;18.97;65.84;102377.06;5041378;28;1729;-51
2020/12/21 10:49:23;;;;;;;;;;;;;;;18.91;65.88;102384.63;5049485;28;1630;-50
2020/12/21 10:51:48;;;;;;;;;;;;;;;18.92;64.82;102373.81;5039172;28;1743;-50
2020/12/21 10:54:15;;;;;;;;;;;;;;;19.08;65.11;102371.88;5048231;28;1661;-50
2020/12/21 10:56:41;;;;;;;;;;;;;;;19.19;64.58;102367.66;5042986;28;1766;-49
2020/12/21 10:59:07;;;;;;;;;;;;;;;19.26;64.23;102379.72;5048204;28;1918;-50
2020/12/21 11:01:33;;;;;;;;;;;;;;;19.21;63.12;102368.41;5047628;28;1847;-49
2020/12/21 11:04:00;;;;;;;;;;;;;;;19.15;64.04;102358.94;5049002;28;1613;-49
2020/12/21 11:06:25;;;;;;;;;;;;;;;19.04;63.99;102361.47;5041867;28;1647;-49
2020/12/21 11:08:53;;;;;;;;;;;;;;;19.24;64.60;102358.34;5043078;28;1834;-50
2020/12/21 11:11:26;;;;;;;;;;;;;;;19.27;64.13;102334.00;5051111;28;1861;-48
2020/12/21 11:13:55;;;;;;;;;;;;;;;19.38;64.41;102351.25;5044924;28;1679;-49
2020/12/21 11:16:21;;;;;;;;;;;;;;;19.33;64.32;102356.91;5054528;28;1616;-50
2020/12/21 11:18:47;;;;;;;;;;;;;;;19.25;64.75;102349.34;5040860;28;1889;-49
2020/12/21 11:21:13;;;;;;;;;;;;;;;19.25;64.94;102353.84;5042643;28;1543;-48
2020/12/21 11:23:49;;;;;;;;;;;;;;;19.18;65.17;102356.06;5043933;28;1624;-50
2020/12/21 11:26:19;;;;;;;;;;;;;;;19.16;65.57;102357.09;5048322;28;2130;-49
2020/12/21 11:28:45;;;;;;;;;;;;;;;19.20;65.19;102355.94;5046346;28;1972;-50
2020/12/21 11:31:13;;;;;;;;;;;;;;;19.43;64.80;102354.47;5040777;28;1720;-50
2020/12/21 11:33:39;;;;;;;;;;;;;;;19.28;65.28;102335.75;5044490;28;1432;-49
2020/12/21 11:36:05;;;;;;;;;;;;;;;19.30;66.07;102335.66;5045411;28;1784;-48
2020/12/21 11:38:30;;;;;;;;;;;;;;;19.33;66.21;102346.16;5043283;28;1898;-50
2020/12/21 11:40:56;;;;;;;;;;;;;;;19.35;65.96;102338.88;5052573;28;1722;-50
2020/12/21 11:43:21;;;;;;;;;;;;;;;19.38;65.97;102344.06;5041559;28;1758;-49
2020/12/21 11:45:47;;;;;;;;;;;;;;;19.35;65.67;102328.16;5042141;28;1688;-49
2020/12/21 11:48:14;;;;;;;;;;;;;;;19.32;65.98;102339.09;5059784;28;1652;-50
2020/12/21 11:50:40;;;;;;;;;;;;;;;19.31;65.72;102331.16;5047593;28;1625;-49
2020/12/21 11:53:05;;;;;;;;;;;;;;;19.28;66.22;102342.94;5043138;28;1900;-49
2020/12/21 11:55:32;;;;;;;;;;;;;;;19.25;65.98;102343.13;5044757;28;1742;-49
2020/12/21 11:57:58;;;;;;;;;;;;;;;19.18;66.03;102329.25;5042436;28;1635;-49
2020/12/21 12:00:23;;;;;;;;;;;;;;;19.19;66.23;102327.44;5041586;28;2379;-49
2020/12/21 12:02:50;;;;;;;;;;;;;;;19.21;65.80;102330.88;5039397;28;1533;-50
2020/12/21 12:05:15;;;;;;;;;;;;;;;19.22;65.92;102322.72;5039060;28;1526;-49
2020/12/21 12:07:41;;;;;;;;;;;;;;;19.20;66.50;102324.66;5041580;28;1929;-50
2020/12/21 12:10:15;;;;;;;;;;;;;;;19.17;66.57;102321.31;5037839;28;1571;-49
2020/12/21 12:12:41;;;;;;;;;;;;;;;19.22;66.48;102320.06;5040901;28;1601;-50
2020/12/21 12:15:06;;;;;;;;;;;;;;;19.18;66.54;102315.84;5044288;28;1514;-50
2020/12/21 12:17:31;;;;;;;;;;;;;;;19.05;67.28;102321.13;5040501;28;1253;-49
2020/12/21 12:19:57;;;;;;;;;;;;;;;19.02;67.29;102324.00;5041473;28;1941;-50
2020/12/21 12:22:24;;;;;;;;;;;;;;;19.03;67.14;102316.81;5045116;28;1724;-49
2020/12/21 12:24:50;;;;;;;;;;;;;;;19.16;67.15;102314.19;5048552;28;1913;-48
2020/12/21 12:27:17;;;;;;;;;;;;;;;19.08;66.86;102312.03;5050887;28;1719;-50
2020/12/21 12:29:42;;;;;;;;;;;;;;;19.12;67.13;102318.03;5041596;28;1759;-49
2020/12/21 12:32:10;;;;;;;;;;;;;;;19.06;66.91;102317.50;5048399;28;1368;-49
2020/12/21 12:34:35;;;;;;;;;;;;;;;19.12;66.99;102321.59;5050937;28;1506;-49
2020/12/21 12:37:03;;;;;;;;;;;;;;;19.08;67.38;102328.97;5046312;28;1446;-50
2020/12/21 12:39:32;;;;;;;;;;;;;;;19.01;67.33;102326.78;5049324;28;1939;-50
2020/12/21 12:41:57;;;;;;;;;;;;;;;19.03;67.06;102328.41;5045119;28;1539;-50
2020/12/21 12:44:22;;;;;;;;;;;;;;;19.03;67.12;102323.03;5054854;28;1579;-49
2020/12/21 12:46:48;;;;;;;;;;;;;;;19.01;66.45;102319.59;5045691;28;1751;-49
2020/12/21 12:49:16;;;;;;;;;;;;;;;19.01;66.90;102318.75;5050604;28;1586;-50
2020/12/21 12:51:42;;;;;;;;;;;;;;;19.02;66.88;102321.34;5041250;28;1628;-50
2020/12/21 12:54:09;;;;;;;;;;;;;;;19.01;66.82;102324.97;5040796;28;1731;-50
2020/12/21 12:56:36;;;;;;;;;;;;;;;19.00;66.27;102331.28;5041076;28;1369;-51
2020/12/21 12:59:02;;;;;;;;;;;;;;;18.97;66.37;102320.75;4995461;28;10811;-50
2020/12/21 13:01:27;;;;;;;;;;;;;;;18.95;66.76;102335.22;5046862;28;1751;-51